Time;durP1;ratioP1;P1;durP2;ratioP2;P2;SDS_P1;SDS_P2;PMS_P1;PMS_P2;Temp;Humidity;BMP_temperature;BMP_pressure;BME280_temperature;BME280_humidity;BME280_pressure;Samples;Min_cycle;Max_cycle;Signal;HPM_P1;HPM_P2
2023/09/17 00:00:45;;;;;;;6.18;5.57;;;19.90;99.90;;;;;;5080926;28;20116;-42
2023/09/17 00:03:13;;;;;;;8.65;6.75;;;19.90;99.90;;;;;;5078932;28;20116;-43
2023/09/17 00:05:39;;;;;;;7.25;6.45;;;19.90;99.90;;;;;;5080880;28;20126;-43
2023/09/17 00:08:04;;;;;;;6.95;5.45;;;19.90;99.90;;;;;;5078368;28;20147;-42
2023/09/17 00:10:30;;;;;;;5.40;4.80;;;19.90;99.90;;;;;;5080325;28;20115;-42
2023/09/17 00:12:56;;;;;;;5.68;5.07;;;19.90;99.90;;;;;;5077830;28;20059;-42
2023/09/17 00:15:26;;;;;;;5.40;4.90;;;19.90;99.90;;;;;;5079338;28;20050;-42
2023/09/17 00:17:55;;;;;;;6.57;5.97;;;19.90;99.90;;;;;;5079179;28;20112;-42
2023/09/17 00:20:20;;;;;;;6.95;5.88;;;19.90;99.90;;;;;;5079485;28;20028;-42
2023/09/17 00:22:46;;;;;;;6.45;5.75;;;19.90;99.90;;;;;;5079490;28;20510;-43
2023/09/17 00:25:11;;;;;;;6.10;5.60;;;19.90;99.90;;;;;;5079573;28;20024;-43
2023/09/17 00:27:39;;;;;;;5.75;5.15;;;19.80;99.90;;;;;;5080294;28;20064;-45
2023/09/17 00:30:08;;;;;;;7.03;6.32;;;19.80;99.90;;;;;;5079744;28;20182;-42
2023/09/17 00:32:34;;;;;;;7.00;6.30;;;19.80;99.90;;;;;;5079707;28;20040;-44
2023/09/17 00:35:00;;;;;;;6.75;5.18;;;19.70;99.90;;;;;;5078629;28;20031;-42
2023/09/17 00:37:25;;;;;;;8.70;5.47;;;19.70;99.90;;;;;;5078653;28;20062;-42
2023/09/17 00:39:51;;;;;;;6.50;5.90;;;19.70;99.90;;;;;;5079750;28;20360;-42
2023/09/17 00:42:16;;;;;;;5.88;5.38;;;19.60;99.90;;;;;;5079607;28;20495;-42
2023/09/17 00:44:42;;;;;;;5.57;5.07;;;19.60;99.90;;;;;;5078701;28;20492;-43
2023/09/17 00:47:12;;;;;;;6.35;5.70;;;19.60;99.90;;;;;;5079140;28;20070;-42
2023/09/17 00:49:38;;;;;;;5.97;5.20;;;19.60;99.90;;;;;;5080200;28;20498;-43
2023/09/17 00:52:14;;;;;;;6.90;5.60;;;19.50;99.90;;;;;;5077335;28;20032;-43
2023/09/17 00:54:40;;;;;;;7.88;6.07;;;19.50;99.90;;;;;;5078740;28;20063;-45
2023/09/17 00:57:06;;;;;;;7.72;6.97;;;19.50;99.90;;;;;;5078280;28;20885;-43
2023/09/17 00:59:37;;;;;;;7.05;6.25;;;19.40;99.90;;;;;;5079506;28;20020;-44
2023/09/17 01:02:04;;;;;;;7.70;7.00;;;19.40;99.90;;;;;;5077327;28;20044;-43
2023/09/17 01:04:30;;;;;;;8.25;6.93;;;19.30;99.90;;;;;;5078801;28;20056;-43
2023/09/17 01:06:59;;;;;;;8.15;7.07;;;19.20;99.90;;;;;;5080475;28;20450;-43
2023/09/17 01:09:29;;;;;;;6.82;6.18;;;19.10;99.90;;;;;;5077627;28;20440;-43
2023/09/17 01:11:56;;;;;;;7.15;6.18;;;19.10;99.90;;;;;;5079243;28;20043;-43
2023/09/17 01:14:21;;;;;;;6.20;5.60;;;19.10;99.90;;;;;;5077771;28;20098;-43
2023/09/17 01:16:47;;;;;;;8.20;6.03;;;19.10;99.90;;;;;;5080956;28;20031;-41
2023/09/17 01:19:18;;;;;;;6.95;6.35;;;19.00;99.90;;;;;;5077894;28;20039;-42
2023/09/17 01:22:09;;;;;;;6.70;6.00;;;19.00;99.90;;;;;;5079936;28;20527;-42
2023/09/17 01:24:56;;;;;;;6.60;6.00;;;19.00;99.90;;;;;;5079819;28;20028;-43
2023/09/17 01:27:23;;;;;;;6.15;5.50;;;18.90;99.90;;;;;;5077137;28;20463;-43
2023/09/17 01:29:49;;;;;;;7.80;7.00;;;18.90;99.90;;;;;;5080663;28;20629;-41
2023/09/17 01:32:16;;;;;;;6.82;6.13;;;18.80;99.90;;;;;;5082348;28;20808;-42
2023/09/17 01:34:45;;;;;;;8.32;6.75;;;18.80;99.90;;;;;;5082964;28;20364;-42
2023/09/17 01:37:17;;;;;;;7.07;6.38;;;18.80;99.90;;;;;;5082434;28;20055;-42
2023/09/17 01:39:47;;;;;;;7.13;6.43;;;18.70;99.90;;;;;;5081534;28;20039;-42
2023/09/17 01:42:15;;;;;;;7.22;6.53;;;18.70;99.90;;;;;;5082836;28;20023;-42
2023/09/17 01:44:46;;;;;;;7.40;6.70;;;18.70;99.90;;;;;;5083039;28;20069;-42
2023/09/17 01:47:12;;;;;;;7.82;6.70;;;18.70;99.90;;;;;;5082383;28;20927;-42
2023/09/17 01:49:39;;;;;;;7.85;6.30;;;18.60;99.90;;;;;;5082726;28;20135;-42
2023/09/17 01:52:05;;;;;;;7.68;6.90;;;18.60;99.90;;;;;;5083651;28;20078;-42
2023/09/17 01:54:30;;;;;;;7.00;6.30;;;18.60;99.90;;;;;;5082282;28;20479;-43
2023/09/17 01:56:56;;;;;;;7.50;6.80;;;18.50;99.90;;;;;;5083676;28;20494;-42
2023/09/17 01:59:21;;;;;;;8.18;6.35;;;18.50;99.90;;;;;;5082106;28;20015;-43
2023/09/17 02:01:47;;;;;;;6.63;5.90;;;18.40;99.90;;;;;;5082664;28;20052;-43
2023/09/17 02:04:13;;;;;;;6.63;6.00;;;18.40;99.90;;;;;;5081354;28;20430;-42
2023/09/17 02:06:38;;;;;;;6.85;6.18;;;18.40;99.90;;;;;;5082324;28;20066;-43
2023/09/17 02:09:05;;;;;;;6.93;6.22;;;18.40;99.90;;;;;;5081067;28;20068;-43
2023/09/17 02:11:32;;;;;;;8.30;7.28;;;18.40;99.90;;;;;;5082128;28;20400;-43
2023/09/17 02:14:00;;;;;;;7.90;7.10;;;18.30;99.90;;;;;;5082042;28;20038;-42
2023/09/17 02:16:26;;;;;;;7.43;6.72;;;18.30;99.90;;;;;;5083105;28;20028;-42
2023/09/17 02:18:55;;;;;;;7.13;6.43;;;18.30;99.90;;;;;;5081654;28;20502;-43
2023/09/17 02:21:21;;;;;;;7.18;6.35;;;18.30;99.90;;;;;;5078663;28;20157;-43
2023/09/17 02:23:47;;;;;;;7.05;6.35;;;18.30;99.90;;;;;;5083449;28;20062;-43
2023/09/17 02:26:13;;;;;;;7.28;5.85;;;18.30;99.90;;;;;;5080658;28;20051;-43
2023/09/17 02:28:38;;;;;;;6.20;4.85;;;18.30;99.90;;;;;;5081750;28;20615;-42
2023/09/17 02:31:06;;;;;;;5.55;5.03;;;18.40;99.90;;;;;;5081454;28;20035;-43
2023/09/17 02:33:31;;;;;;;6.38;5.78;;;18.40;99.90;;;;;;5082841;28;20107;-42
2023/09/17 02:35:57;;;;;;;6.78;6.10;;;18.40;99.90;;;;;;5081076;28;20028;-44
2023/09/17 02:38:22;;;;;;;7.65;6.13;;;18.40;99.90;;;;;;5082130;28;20034;-43
2023/09/17 02:40:51;;;;;;;6.95;6.25;;;18.30;99.90;;;;;;5081691;28;20091;-43
2023/09/17 02:43:16;;;;;;;6.43;5.85;;;18.30;99.90;;;;;;5080597;28;20039;-42
2023/09/17 02:45:43;;;;;;;5.97;5.40;;;18.40;99.90;;;;;;5081781;28;20120;-42
2023/09/17 02:48:08;;;;;;;7.20;6.18;;;18.30;99.90;;;;;;5081990;28;20039;-42
2023/09/17 02:50:34;;;;;;;6.15;5.55;;;18.30;99.90;;;;;;5081531;28;20028;-42
2023/09/17 02:52:59;;;;;;;6.18;5.55;;;18.30;99.90;;;;;;5081324;28;20132;-43
2023/09/17 02:55:25;;;;;;;6.95;6.10;;;18.30;99.90;;;;;;5081565;28;20028;-42
2023/09/17 02:57:50;;;;;;;7.93;6.03;;;18.20;99.90;;;;;;5081241;28;20490;-43
2023/09/17 03:00:17;;;;;;;9.70;6.75;;;18.00;99.90;;;;;;5080617;28;20809;-42
2023/09/17 03:02:47;;;;;;;7.40;6.60;;;17.80;99.90;;;;;;5081414;28;20123;-42
2023/09/17 03:05:20;;;;;;;8.00;6.72;;;17.70;99.90;;;;;;5079928;28;20118;-43
2023/09/17 03:07:46;;;;;;;9.23;5.88;;;17.60;99.90;;;;;;5082155;28;20051;-42
2023/09/17 03:10:13;;;;;;;7.25;5.25;;;17.40;99.90;;;;;;5081700;28;20099;-42
2023/09/17 03:12:38;;;;;;;6.45;5.63;;;17.40;99.90;;;;;;5078308;28;20142;-42
2023/09/17 03:15:08;;;;;;;5.57;5.05;;;17.30;99.90;;;;;;5078911;28;20139;-43
2023/09/17 03:17:37;;;;;;;5.95;5.40;;;17.30;99.90;;;;;;5078401;28;20032;-42
2023/09/17 03:20:13;;;;;;;7.25;6.45;;;17.20;99.90;;;;;;5080453;28;20032;-42
2023/09/17 03:22:45;;;;;;;6.13;5.53;;;17.20;99.90;;;;;;5080680;28;20012;-42
2023/09/17 03:25:12;;;;;;;7.20;5.50;;;17.20;99.90;;;;;;5078582;28;20020;-42
2023/09/17 03:27:45;;;;;;;6.22;5.63;;;17.20;99.90;;;;;;5081008;28;20174;-42
2023/09/17 03:30:12;;;;;;;5.65;5.15;;;17.20;99.90;;;;;;5079555;28;20051;-43
2023/09/17 03:32:38;;;;;;;5.40;4.90;;;17.20;99.90;;;;;;5081396;28;20031;-42
2023/09/17 03:35:08;;;;;;;7.38;5.30;;;17.20;99.90;;;;;;5078928;28;20016;-43
2023/09/17 03:37:34;;;;;;;6.63;5.90;;;17.10;99.90;;;;;;5082124;28;20028;-41
2023/09/17 03:40:10;;;;;;;5.53;5.03;;;17.10;99.90;;;;;;5080268;28;20034;-42
2023/09/17 03:42:37;;;;;;;5.40;4.78;;;17.10;99.90;;;;;;5081331;28;20106;-42
2023/09/17 03:45:05;;;;;;;6.55;5.40;;;17.10;99.90;;;;;;5080390;28;20028;-42
2023/09/17 03:47:34;;;;;;;6.35;5.65;;;17.10;99.90;;;;;;5079699;28;20039;-43
2023/09/17 03:49:59;;;;;;;6.50;5.90;;;17.00;99.90;;;;;;5080029;28;20098;-43
2023/09/17 03:52:29;;;;;;;6.68;5.97;;;17.10;99.90;;;;;;5080823;28;20507;-43
2023/09/17 03:54:57;;;;;;;6.38;5.68;;;17.00;99.90;;;;;;5078995;28;20029;-43
2023/09/17 03:57:27;;;;;;;6.18;5.68;;;17.10;99.90;;;;;;5079538;28;20016;-42
2023/09/17 03:59:54;;;;;;;5.88;4.97;;;17.10;99.90;;;;;;5079086;28;20034;-43
2023/09/17 04:02:20;;;;;;;6.25;5.65;;;17.10;99.90;;;;;;5079523;28;20369;-43
2023/09/17 04:04:46;;;;;;;6.78;5.20;;;17.10;99.90;;;;;;5080990;28;20052;-42
2023/09/17 04:07:12;;;;;;;5.85;5.32;;;17.10;99.90;;;;;;5079583;28;20036;-42
2023/09/17 04:09:38;;;;;;;6.60;6.00;;;17.20;99.90;;;;;;5079832;28;20024;-42
2023/09/17 04:12:04;;;;;;;7.22;6.53;;;17.10;99.90;;;;;;5078248;28;20112;-42
2023/09/17 04:14:31;;;;;;;7.47;6.72;;;17.10;99.90;;;;;;5080845;28;20024;-42
2023/09/17 04:17:02;;;;;;;9.70;6.80;;;17.00;99.90;;;;;;5080679;28;20039;-42
2023/09/17 04:19:37;;;;;;;7.63;6.93;;;16.90;99.90;;;;;;5080118;28;20051;-43
2023/09/17 04:22:02;;;;;;;8.23;6.90;;;17.00;99.90;;;;;;5079629;28;20040;-44
2023/09/17 04:24:29;;;;;;;9.50;7.97;;;16.90;99.90;;;;;;5079447;28;20024;-42
2023/09/17 04:26:55;;;;;;;8.65;7.00;;;16.90;99.90;;;;;;5080470;28;20067;-42
2023/09/17 04:29:20;;;;;;;8.95;8.05;;;16.90;99.90;;;;;;5079504;28;20438;-42
2023/09/17 04:31:49;;;;;;;7.40;6.68;;;16.90;99.90;;;;;;5080099;28;20028;-43
2023/09/17 04:34:15;;;;;;;11.57;8.27;;;16.90;99.90;;;;;;5079402;28;20032;-43
2023/09/17 04:36:41;;;;;;;8.05;7.25;;;16.90;99.90;;;;;;5079128;28;20032;-43
2023/09/17 04:39:10;;;;;;;8.90;8.00;;;16.90;99.90;;;;;;5080780;28;20042;-42
2023/09/17 04:41:36;;;;;;;6.72;6.00;;;16.90;99.90;;;;;;5080083;28;20502;-43
2023/09/17 04:44:07;;;;;;;8.27;7.28;;;16.90;99.90;;;;;;5079276;28;20111;-43
2023/09/17 04:46:34;;;;;;;7.78;7.10;;;16.90;99.90;;;;;;5077980;28;20036;-43
2023/09/17 04:48:59;;;;;;;8.85;7.95;;;16.90;99.90;;;;;;5078745;28;20135;-43
2023/09/17 04:51:27;;;;;;;11.38;10.15;;;16.80;99.90;;;;;;5081049;28;20805;-42
2023/09/17 04:53:52;;;;;;;10.93;9.88;;;16.80;99.90;;;;;;5079682;28;20039;-43
2023/09/17 04:56:18;;;;;;;8.52;7.63;;;16.80;99.90;;;;;;5079132;28;20024;-43
2023/09/17 04:58:43;;;;;;;10.93;8.40;;;16.70;99.90;;;;;;5078145;28;20147;-43
2023/09/17 05:01:10;;;;;;;9.85;8.88;;;16.80;99.90;;;;;;5079401;28;20114;-43
2023/09/17 05:03:37;;;;;;;11.60;10.10;;;16.80;99.90;;;;;;5079080;28;20051;-42
2023/09/17 05:06:02;;;;;;;9.35;8.43;;;16.70;99.90;;;;;;5083754;28;20032;-42
2023/09/17 05:08:28;;;;;;;10.98;9.95;;;16.70;99.90;;;;;;5084465;28;20031;-43
2023/09/17 05:10:53;;;;;;;10.43;9.40;;;16.70;99.90;;;;;;5084669;28;20035;-43
2023/09/17 05:13:19;;;;;;;10.50;9.40;;;16.70;99.90;;;;;;5080818;28;20511;-43
2023/09/17 05:15:45;;;;;;;10.48;9.38;;;16.70;99.90;;;;;;5083344;28;20036;-42
2023/09/17 05:18:10;;;;;;;14.02;9.90;;;16.70;99.90;;;;;;5082876;28;20031;-43
2023/09/17 05:20:38;;;;;;;11.43;10.30;;;16.70;99.90;;;;;;5084664;28;20023;-42
2023/09/17 05:23:04;;;;;;;11.43;10.30;;;16.70;99.90;;;;;;5082967;28;20100;-42
2023/09/17 05:25:29;;;;;;;9.55;8.57;;;16.70;99.90;;;;;;5081763;28;20039;-42
2023/09/17 05:27:55;;;;;;;9.93;8.93;;;16.80;99.90;;;;;;5082636;28;20055;-42
2023/09/17 05:30:23;;;;;;;12.80;11.50;;;16.70;99.90;;;;;;5082483;28;20027;-42
2023/09/17 05:32:49;;;;;;;12.57;10.52;;;16.80;99.90;;;;;;5083447;28;20024;-43
2023/09/17 05:35:14;;;;;;;11.93;10.68;;;16.80;99.90;;;;;;5082490;28;20028;-42
2023/09/17 05:37:40;;;;;;;11.02;9.73;;;16.80;99.90;;;;;;5082045;28;20032;-42
2023/09/17 05:40:12;;;;;;;9.23;7.43;;;16.70;99.90;;;;;;5082598;28;20038;-43
2023/09/17 05:42:37;;;;;;;10.18;9.10;;;16.70;99.90;;;;;;5082744;28;20078;-43
2023/09/17 05:45:04;;;;;;;10.15;9.15;;;16.70;99.90;;;;;;5083316;28;20063;-43
2023/09/17 05:47:30;;;;;;;10.45;9.38;;;16.70;99.90;;;;;;5081025;28;20040;-42
2023/09/17 05:49:57;;;;;;;10.88;9.77;;;16.70;99.90;;;;;;5082703;28;20711;-42
2023/09/17 05:52:23;;;;;;;10.65;9.63;;;16.70;99.90;;;;;;5081887;28;20094;-42
2023/09/17 05:54:48;;;;;;;8.50;7.70;;;16.70;99.90;;;;;;5081980;28;20028;-43
2023/09/17 05:57:17;;;;;;;10.63;9.52;;;16.70;99.90;;;;;;5083876;28;20186;-42
2023/09/17 05:59:43;;;;;;;12.38;11.07;;;16.70;99.90;;;;;;5082109;28;20139;-43
2023/09/17 06:02:09;;;;;;;10.90;9.80;;;16.80;99.90;;;;;;5081537;28;20119;-42
2023/09/17 06:04:35;;;;;;;10.50;9.00;;;16.80;99.90;;;;;;5083114;28;20064;-42
2023/09/17 06:07:01;;;;;;;10.57;8.77;;;16.80;99.90;;;;;;5080782;28;20801;-43
2023/09/17 06:09:27;;;;;;;10.68;9.68;;;16.80;99.90;;;;;;5082481;28;20092;-43
2023/09/17 06:11:52;;;;;;;11.00;9.90;;;16.80;99.90;;;;;;5081999;28;20028;-42
2023/09/17 06:14:18;;;;;;;9.18;8.27;;;16.80;99.90;;;;;;5080940;28;20435;-41
2023/09/17 06:16:52;;;;;;;10.60;8.98;;;16.80;99.90;;;;;;5081352;28;20119;-42
2023/09/17 06:19:18;;;;;;;9.30;8.43;;;16.80;99.90;;;;;;5080728;28;20024;-41
2023/09/17 06:21:44;;;;;;;12.70;11.15;;;16.80;99.90;;;;;;5080753;28;20313;-43
2023/09/17 06:24:09;;;;;;;10.57;9.57;;;16.80;99.90;;;;;;5080470;28;20024;-43
2023/09/17 06:26:35;;;;;;;9.85;8.85;;;16.80;99.90;;;;;;5082925;28;20781;-42
2023/09/17 06:29:01;;;;;;;9.93;8.93;;;16.80;99.90;;;;;;5081032;28;20499;-43
2023/09/17 06:31:27;;;;;;;9.18;8.23;;;16.70;99.90;;;;;;5082748;28;20635;-41
2023/09/17 06:33:55;;;;;;;8.20;7.28;;;16.80;99.90;;;;;;5082707;28;20028;-42
2023/09/17 06:36:22;;;;;;;7.95;7.25;;;16.80;99.90;;;;;;5081455;28;20047;-42
2023/09/17 06:38:48;;;;;;;6.95;6.25;;;16.80;99.90;;;;;;5081944;28;20032;-43
2023/09/17 06:41:16;;;;;;;8.18;6.95;;;16.80;99.90;;;;;;5081594;28;20541;-43
2023/09/17 06:43:42;;;;;;;8.18;6.75;;;16.80;99.90;;;;;;5081318;28;20032;-43
2023/09/17 06:46:08;;;;;;;7.43;6.72;;;16.90;99.90;;;;;;5082215;28;20043;-42
2023/09/17 06:48:33;;;;;;;6.47;5.88;;;16.90;99.90;;;;;;5082584;28;20024;-41
2023/09/17 06:50:59;;;;;;;7.35;6.55;;;16.90;99.90;;;;;;5081101;28;20513;-42
2023/09/17 06:53:24;;;;;;;7.97;7.15;;;16.90;99.90;;;;;;5083150;28;20141;-43
2023/09/17 06:55:50;;;;;;;7.25;6.25;;;16.90;99.90;;;;;;5081324;28;20032;-41
2023/09/17 06:58:19;;;;;;;6.93;6.22;;;16.90;99.90;;;;;;5079797;28;20262;-42
2023/09/17 07:00:47;;;;;;;7.18;6.35;;;16.90;99.90;;;;;;5079663;28;20127;-42
2023/09/17 07:03:12;;;;;;;6.38;5.78;;;17.00;99.90;;;;;;5080231;28;20040;-42
2023/09/17 07:05:38;;;;;;;6.35;5.75;;;17.00;99.90;;;;;;5081428;28;20503;-42
2023/09/17 07:08:04;;;;;;;5.85;5.32;;;17.00;99.90;;;;;;5080508;28;20044;-42
2023/09/17 07:10:29;;;;;;;6.43;5.50;;;17.00;99.90;;;;;;5081532;28;20029;-42
2023/09/17 07:12:55;;;;;;;8.35;6.30;;;17.00;99.90;;;;;;5080818;28;20593;-43
2023/09/17 07:15:21;;;;;;;6.47;5.43;;;17.00;99.90;;;;;;5077182;28;20078;-43
2023/09/17 07:17:47;;;;;;;5.70;5.07;;;17.10;99.90;;;;;;5076842;28;20028;-42
2023/09/17 07:20:13;;;;;;;6.10;5.30;;;17.10;99.90;;;;;;5084010;28;20071;-42
2023/09/17 07:22:48;;;;;;;5.90;5.30;;;17.10;99.90;;;;;;5084512;28;20020;-42
2023/09/17 07:25:14;;;;;;;6.32;4.95;;;17.10;99.90;;;;;;5083831;28;20031;-42
2023/09/17 07:27:40;;;;;;;6.88;5.65;;;17.20;99.90;;;;;;5082395;28;20039;-42
2023/09/17 07:30:06;;;;;;;5.22;4.72;;;17.20;99.90;;;;;;5083662;28;20020;-43
2023/09/17 07:32:31;;;;;;;5.88;5.07;;;17.20;99.90;;;;;;5083641;28;20031;-43
2023/09/17 07:35:04;;;;;;;5.40;4.82;;;17.20;99.90;;;;;;5085886;28;20029;-42
2023/09/17 07:37:29;;;;;;;5.10;4.60;;;17.20;99.90;;;;;;5085443;28;20115;-42
2023/09/17 07:40:04;;;;;;;5.47;4.88;;;17.20;99.90;;;;;;5084622;28;20119;-41
2023/09/17 07:42:30;;;;;;;5.75;5.15;;;17.20;99.90;;;;;;5086356;28;20020;-42
2023/09/17 07:44:56;;;;;;;5.63;5.03;;;17.20;99.90;;;;;;5085546;28;20027;-42
2023/09/17 07:47:22;;;;;;;5.45;4.95;;;17.20;99.90;;;;;;5085498;28;20040;-41
2023/09/17 07:49:47;;;;;;;6.45;5.30;;;17.20;99.90;;;;;;5081842;28;20085;-43
2023/09/17 07:52:13;;;;;;;6.80;6.20;;;17.20;99.90;;;;;;5064902;28;20365;-42
2023/09/17 07:54:40;;;;;;;6.65;5.65;;;17.20;99.90;;;;;;5083209;28;20486;-43
2023/09/17 07:57:07;;;;;;;6.35;5.75;;;17.20;99.90;;;;;;5085122;28;20031;-44
2023/09/17 07:59:32;;;;;;;6.18;5.57;;;17.20;99.90;;;;;;5084010;28;20028;-44
2023/09/17 08:01:58;;;;;;;6.00;5.22;;;17.20;99.90;;;;;;5078558;28;20515;-42
2023/09/17 08:04:27;;;;;;;7.95;7.25;;;17.20;99.90;;;;;;5078712;28;20102;-42
2023/09/17 08:06:53;;;;;;;6.97;6.28;;;17.20;99.90;;;;;;5082990;28;20043;-42
2023/09/17 08:09:18;;;;;;;6.03;5.43;;;17.20;99.90;;;;;;5082885;28;20027;-44
2023/09/17 08:11:44;;;;;;;6.57;5.95;;;17.20;99.90;;;;;;5084236;28;20028;-42
2023/09/17 08:14:16;;;;;;;7.35;6.65;;;17.20;99.90;;;;;;5081412;28;20455;-44
2023/09/17 08:16:42;;;;;;;7.90;7.10;;;17.10;99.90;;;;;;5083661;28;20024;-43
2023/09/17 08:19:07;;;;;;;9.30;7.45;;;17.20;99.90;;;;;;5083755;28;20537;-42
2023/09/17 08:21:33;;;;;;;7.72;6.93;;;17.20;99.90;;;;;;5084346;28;20020;-43
2023/09/17 08:24:12;;;;;;;8.30;6.63;;;17.20;99.90;;;;;;5082529;28;20016;-44
2023/09/17 08:26:38;;;;;;;7.95;7.15;;;17.20;99.90;;;;;;5073262;28;20040;-43
2023/09/17 08:29:07;;;;;;;7.78;7.05;;;17.20;99.90;;;;;;5079728;28;20024;-42
2023/09/17 08:31:32;;;;;;;8.60;7.70;;;17.30;99.90;;;;;;5085330;28;20027;-42
2023/09/17 08:34:00;;;;;;;6.90;6.20;;;17.30;99.90;;;;;;5084516;28;20016;-42
2023/09/17 08:36:26;;;;;;;7.40;6.70;;;17.30;99.90;;;;;;5081288;28;20480;-43
2023/09/17 08:38:53;;;;;;;7.78;6.85;;;17.40;99.90;;;;;;5084898;28;20020;-43
2023/09/17 08:41:22;;;;;;;7.38;6.68;;;17.50;99.90;;;;;;5084048;28;20086;-42
2023/09/17 08:43:51;;;;;;;7.57;6.85;;;17.50;99.90;;;;;;5084701;28;20488;-42
2023/09/17 08:46:18;;;;;;;8.10;6.20;;;17.50;99.90;;;;;;5083615;28;20410;-43
2023/09/17 08:48:45;;;;;;;8.02;7.22;;;17.60;99.90;;;;;;5081888;28;20031;-43
2023/09/17 08:51:15;;;;;;;8.43;7.60;;;17.70;99.90;;;;;;5080249;28;20119;-42
2023/09/17 08:54:05;;;;;;;9.57;8.57;;;17.70;99.90;;;;;;5082662;28;20012;-42
2023/09/17 08:56:34;;;;;;;11.50;9.25;;;17.70;99.90;;;;;;5084407;28;20024;-42
2023/09/17 08:59:05;;;;;;;9.75;8.68;;;17.70;99.90;;;;;;5084402;28;20050;-43
2023/09/17 09:01:33;;;;;;;8.68;7.80;;;17.70;99.90;;;;;;5084612;28;20024;-42
2023/09/17 09:04:00;;;;;;;8.38;7.57;;;17.70;99.90;;;;;;5084083;28;20032;-43
2023/09/17 09:06:29;;;;;;;8.32;7.15;;;17.70;99.90;;;;;;5084552;28;20090;-43
2023/09/17 09:08:55;;;;;;;8.40;7.60;;;17.80;99.90;;;;;;5084910;28;20020;-43
2023/09/17 09:11:22;;;;;;;8.05;7.25;;;17.90;99.90;;;;;;5079976;28;20020;-43
2023/09/17 09:13:57;;;;;;;8.20;7.25;;;17.90;99.90;;;;;;5083100;28;20040;-43
2023/09/17 09:16:22;;;;;;;8.23;7.30;;;17.90;99.90;;;;;;5083570;28;20024;-42
2023/09/17 09:18:48;;;;;;;11.10;9.73;;;17.90;99.90;;;;;;5084228;28;20020;-42
2023/09/17 09:21:14;;;;;;;9.80;8.80;;;18.00;99.90;;;;;;5083824;28;20460;-42
2023/09/17 09:23:40;;;;;;;9.45;8.45;;;18.00;99.90;;;;;;5083883;28;20027;-42
2023/09/17 09:26:06;;;;;;;9.35;7.97;;;18.00;99.90;;;;;;5084040;28;20020;-42
2023/09/17 09:28:33;;;;;;;9.38;8.25;;;18.10;99.90;;;;;;5079002;28;20066;-42
2023/09/17 09:30:58;;;;;;;8.23;7.43;;;18.10;99.90;;;;;;5078510;28;20016;-42
2023/09/17 09:33:26;;;;;;;9.07;8.07;;;18.20;99.90;;;;;;5081450;28;20046;-42
2023/09/17 09:35:53;;;;;;;10.07;8.95;;;18.30;99.90;;;;;;5077984;28;20028;-43
2023/09/17 09:38:19;;;;;;;9.82;8.73;;;18.30;99.90;;;;;;5082305;28;20032;-43
2023/09/17 09:40:45;;;;;;;12.40;10.10;;;18.30;99.90;;;;;;5084476;28;20031;-43
2023/09/17 09:43:30;;;;;;;11.00;9.90;;;18.40;99.90;;;;;;5083842;28;20516;-43
2023/09/17 09:46:00;;;;;;;13.18;11.43;;;18.40;99.90;;;;;;5083705;28;20506;-44
2023/09/17 09:48:29;;;;;;;12.45;10.30;;;18.50;99.90;;;;;;5083479;28;20043;-39
2023/09/17 09:50:55;;;;;;;12.50;11.30;;;18.50;99.90;;;;;;5085634;28;20112;-42
2023/09/17 09:53:24;;;;;;;12.85;11.23;;;18.50;99.90;;;;;;5085267;28;20498;-43
2023/09/17 09:55:50;;;;;;;10.93;9.63;;;18.60;99.90;;;;;;5068326;28;20025;-43
2023/09/17 09:58:15;;;;;;;11.95;10.40;;;18.60;99.90;;;;;;5081808;28;20031;-42
2023/09/17 10:00:45;;;;;;;10.55;9.45;;;18.60;99.90;;;;;;5087328;28;20097;-41
2023/09/17 10:03:12;;;;;;;11.52;10.25;;;18.70;99.90;;;;;;5086721;28;20098;-41
2023/09/17 10:05:40;;;;;;;13.32;11.98;;;18.70;99.90;;;;;;5087386;28;20612;-41
2023/09/17 10:08:10;;;;;;;12.32;9.93;;;18.80;99.90;;;;;;5086234;28;20036;-41
2023/09/17 10:10:40;;;;;;;10.02;9.07;;;18.80;99.90;;;;;;5087925;28;20055;-43
2023/09/17 10:13:10;;;;;;;12.18;9.93;;;19.00;99.90;;;;;;5087020;28;20153;-43
2023/09/17 10:15:36;;;;;;;9.57;8.57;;;19.00;99.90;;;;;;5087320;28;20031;-43
2023/09/17 10:18:04;;;;;;;9.93;8.85;;;19.10;99.90;;;;;;5086002;28;20144;-44
2023/09/17 10:20:30;;;;;;;12.30;10.30;;;19.20;99.90;;;;;;5076656;28;20336;-42
2023/09/17 10:22:58;;;;;;;13.60;10.70;;;19.30;99.90;;;;;;5071869;28;20154;-45
2023/09/17 10:25:24;;;;;;;12.77;11.07;;;19.30;99.90;;;;;;5087627;28;20024;-41
2023/09/17 10:27:52;;;;;;;11.13;9.93;;;19.40;99.90;;;;;;5087185;28;20036;-42
2023/09/17 10:30:22;;;;;;;13.50;9.98;;;19.50;99.90;;;;;;5087088;28;20646;-42
2023/09/17 10:32:50;;;;;;;11.00;9.88;;;19.60;99.90;;;;;;5087507;28;20759;-42
2023/09/17 10:35:16;;;;;;;12.50;10.43;;;19.60;99.90;;;;;;5084971;28;20866;-42
2023/09/17 10:37:43;;;;;;;10.68;8.95;;;19.60;99.90;;;;;;5087694;28;20123;-42
2023/09/17 10:40:10;;;;;;;10.23;9.20;;;19.60;99.90;;;;;;5086656;28;20088;-42
2023/09/17 10:42:38;;;;;;;12.10;10.23;;;19.70;99.90;;;;;;5086247;28;20047;-42
2023/09/17 10:45:07;;;;;;;13.57;10.50;;;19.70;99.90;;;;;;5086882;28;20156;-42
2023/09/17 10:47:35;;;;;;;12.65;10.02;;;19.70;99.90;;;;;;5079884;28;20036;-43
2023/09/17 10:50:03;;;;;;;13.52;11.15;;;19.70;99.90;;;;;;5086303;28;20028;-43
2023/09/17 10:52:32;;;;;;;12.48;10.60;;;19.80;99.90;;;;;;5082709;28;20060;-42
2023/09/17 10:54:58;;;;;;;14.30;10.75;;;19.90;99.90;;;;;;5079747;28;20037;-43
2023/09/17 10:57:40;;;;;;;12.10;10.20;;;19.90;99.90;;;;;;5076961;28;20031;-44
2023/09/17 11:00:17;;;;;;;13.30;10.73;;;20.00;99.90;;;;;;5085907;28;20020;-42
2023/09/17 11:02:47;;;;;;;12.65;10.70;;;20.00;99.90;;;;;;5085964;28;20639;-42
2023/09/17 11:05:17;;;;;;;13.23;10.63;;;20.00;99.90;;;;;;5084354;28;20031;-43
2023/09/17 11:07:43;;;;;;;15.20;11.82;;;20.00;99.90;;;;;;5085975;28;20039;-42
2023/09/17 11:10:14;;;;;;;14.40;11.50;;;20.00;99.90;;;;;;5084878;28;20485;-42
2023/09/17 11:12:40;;;;;;;14.48;11.55;;;20.00;99.90;;;;;;5086297;28;20024;-41
2023/09/17 11:15:07;;;;;;;14.25;11.30;;;20.10;99.90;;;;;;5086306;28;20023;-44
2023/09/17 11:17:34;;;;;;;13.23;10.95;;;20.10;99.90;;;;;;5087481;28;20062;-42
2023/09/17 11:20:00;;;;;;;13.52;11.95;;;20.20;99.90;;;;;;5085543;28;20020;-42
2023/09/17 11:22:29;;;;;;;14.35;11.55;;;20.30;99.90;;;;;;5086881;28;20476;-41
2023/09/17 11:24:55;;;;;;;15.50;11.95;;;20.40;99.90;;;;;;5085663;28;20030;-42
2023/09/17 11:27:21;;;;;;;14.15;11.70;;;20.50;99.90;;;;;;5085749;28;20036;-42
2023/09/17 11:29:48;;;;;;;12.77;11.25;;;20.50;99.90;;;;;;5086418;28;20036;-43
2023/09/17 11:32:21;;;;;;;13.35;10.90;;;20.50;99.90;;;;;;5085030;28;20111;-42
2023/09/17 11:34:49;;;;;;;;;;;20.50;99.90;;;;;;5086485;28;20085;-42
2023/09/17 11:37:16;;;;;;;11.25;9.60;;;20.50;99.90;;;;;;5084816;28;19951;-41
2023/09/17 11:39:52;;;;;;;13.63;10.73;;;20.50;99.90;;;;;;5086109;28;20081;-41
2023/09/17 11:42:18;;;;;;;13.52;11.27;;;20.60;99.90;;;;;;5083685;28;20533;-42
2023/09/17 11:44:45;;;;;;;13.80;11.30;;;20.60;99.90;;;;;;5084391;28;20059;-42
2023/09/17 11:47:12;;;;;;;12.70;11.07;;;20.70;99.90;;;;;;5094367;28;20035;-41
2023/09/17 11:49:39;;;;;;;12.52;11.10;;;20.80;99.90;;;;;;5086305;28;20020;-42
2023/09/17 11:52:11;;;;;;;14.30;12.18;;;20.80;99.90;;;;;;5084407;28;20105;-42
2023/09/17 11:54:52;;;;;;;15.57;10.60;;;20.80;99.90;;;;;;5086618;28;20114;-41
2023/09/17 11:57:25;;;;;;;14.00;11.40;;;20.90;99.90;;;;;;5085232;28;20533;-41
2023/09/17 11:59:51;;;;;;;11.98;10.52;;;20.90;99.90;;;;;;5085269;28;20043;-41
2023/09/17 12:02:17;;;;;;;15.88;11.95;;;20.90;99.90;;;;;;5084585;28;20084;-41
2023/09/17 12:04:43;;;;;;;11.38;10.18;;;20.90;99.90;;;;;;5085856;28;20020;-41
2023/09/17 12:07:11;;;;;;;12.25;10.88;;;20.90;99.90;;;;;;5084696;28;20074;-42
2023/09/17 12:12:12;;;;;;;14.52;11.63;;;20.90;99.90;;;;;;5085060;28;20479;-42
2023/09/17 12:14:37;;;;;;;12.63;11.02;;;20.80;99.90;;;;;;5085420;28;20016;-42
2023/09/17 12:17:03;;;;;;;13.25;11.10;;;20.80;99.90;;;;;;5084575;28;20741;-42
2023/09/17 12:19:29;;;;;;;13.02;11.63;;;20.80;99.90;;;;;;5075512;28;20036;-42
2023/09/17 12:21:59;;;;;;;11.98;10.77;;;20.80;99.90;;;;;;5085398;28;20062;-42
2023/09/17 12:24:29;;;;;;;13.50;11.60;;;20.70;99.90;;;;;;5085201;28;20020;-42
2023/09/17 12:29:34;;;;;;;11.48;10.27;;;20.80;99.90;;;;;;5085171;28;20119;-42
2023/09/17 12:32:00;;;;;;;11.82;10.63;;;20.80;99.90;;;;;;5084655;28;20027;-42
2023/09/17 12:34:26;;;;;;;11.95;10.60;;;21.00;99.90;;;;;;5084805;28;20108;-42
2023/09/17 12:36:51;;;;;;;12.20;10.73;;;21.00;99.90;;;;;;5085309;28;20027;-43
2023/09/17 12:39:17;;;;;;;12.40;10.85;;;21.10;99.90;;;;;;5084359;28;20375;-43
2023/09/17 12:41:43;;;;;;;13.18;11.77;;;21.10;99.90;;;;;;5084685;28;20020;-43
2023/09/17 12:44:10;;;;;;;12.75;11.45;;;21.20;99.90;;;;;;5083851;28;20475;-43
2023/09/17 12:46:36;;;;;;;12.77;10.80;;;21.20;99.90;;;;;;5084333;28;20487;-43